sensor_id;sensor_type;location;lat;lon;timestamp;temperature;humidity
2721;DHT22;1368;49.484;11.112;2023-04-10T00:01:38;5.60;99.90
2721;DHT22;1368;49.484;11.112;2023-04-10T00:04:04;5.60;99.90
2721;DHT22;1368;49.484;11.112;2023-04-10T00:06:31;5.80;99.90
2721;DHT22;1368;49.484;11.112;2023-04-10T00:08:57;6.30;99.90
2721;DHT22;1368;49.484;11.112;2023-04-10T00:11:24;5.20;99.90
2721;DHT22;1368;49.484;11.112;2023-04-10T00:13:49;5.20;99.90
2721;DHT22;1368;49.484;11.112;2023-04-10T00:16:15;5.20;99.90
2721;DHT22;1368;49.484;11.112;2023-04-10T00:18:41;5.20;99.90
2721;DHT22;1368;49.484;11.112;2023-04-10T00:21:06;5.30;99.90
2721;DHT22;1368;49.484;11.112;2023-04-10T00:23:32;5.40;99.90
2721;DHT22;1368;49.484;11.112;2023-04-10T00:25:59;5.50;99.90
2721;DHT22;1368;49.484;11.112;2023-04-10T00:28:25;5.30;99.90
2721;DHT22;1368;49.484;11.112;2023-04-10T00:30:51;5.30;99.90
2721;DHT22;1368;49.484;11.112;2023-04-10T00:33:16;5.30;99.90
2721;DHT22;1368;49.484;11.112;2023-04-10T00:35:42;5.30;99.90
2721;DHT22;1368;49.484;11.112;2023-04-10T00:38:07;5.10;99.90
2721;DHT22;1368;49.484;11.112;2023-04-10T00:40:33;5.00;99.90
2721;DHT22;1368;49.484;11.112;2023-04-10T00:42:59;4.70;99.90
2721;DHT22;1368;49.484;11.112;2023-04-10T00:45:25;4.60;99.90
2721;DHT22;1368;49.484;11.112;2023-04-10T00:47:51;4.60;99.90
2721;DHT22;1368;49.484;11.112;2023-04-10T00:50:18;4.60;99.90
2721;DHT22;1368;49.484;11.112;2023-04-10T00:52:44;4.70;99.90
2721;DHT22;1368;49.484;11.112;2023-04-10T00:55:10;4.60;99.90
2721;DHT22;1368;49.484;11.112;2023-04-10T00:57:36;4.60;99.90
2721;DHT22;1368;49.484;11.112;2023-04-10T01:00:02;4.70;99.90
2721;DHT22;1368;49.484;11.112;2023-04-10T01:02:29;4.60;99.90
2721;DHT22;1368;49.484;11.112;2023-04-10T01:04:55;4.50;99.90
2721;DHT22;1368;49.484;11.112;2023-04-10T01:10:12;4.80;99.90
2721;DHT22;1368;49.484;11.112;2023-04-10T01:12:58;5.40;99.90
2721;DHT22;1368;49.484;11.112;2023-04-10T01:15:34;4.80;99.90
2721;DHT22;1368;49.484;11.112;2023-04-10T01:18:18;4.60;99.90
2721;DHT22;1368;49.484;11.112;2023-04-10T01:20:46;4.60;99.90
2721;DHT22;1368;49.484;11.112;2023-04-10T01:26:09;4.30;99.90
2721;DHT22;1368;49.484;11.112;2023-04-10T01:28:56;4.30;99.90
2721;DHT22;1368;49.484;11.112;2023-04-10T01:34:01;4.10;99.90
2721;DHT22;1368;49.484;11.112;2023-04-10T01:36:35;4.10;99.90
2721;DHT22;1368;49.484;11.112;2023-04-10T01:39:02;4.10;99.90
2721;DHT22;1368;49.484;11.112;2023-04-10T01:41:30;4.00;99.90
2721;DHT22;1368;49.484;11.112;2023-04-10T01:43:57;4.20;99.90
2721;DHT22;1368;49.484;11.112;2023-04-10T01:46:24;4.30;99.90
2721;DHT22;1368;49.484;11.112;2023-04-10T01:48:52;4.60;99.90
2721;DHT22;1368;49.484;11.112;2023-04-10T01:51:19;4.70;99.90
2721;DHT22;1368;49.484;11.112;2023-04-10T01:53:45;4.80;99.90
2721;DHT22;1368;49.484;11.112;2023-04-10T01:56:12;5.10;99.90
2721;DHT22;1368;49.484;11.112;2023-04-10T01:58:38;5.20;99.90
2721;DHT22;1368;49.484;11.112;2023-04-10T02:01:03;5.20;99.90
2721;DHT22;1368;49.484;11.112;2023-04-10T02:03:30;5.10;99.90
2721;DHT22;1368;49.484;11.112;2023-04-10T02:06:10;5.00;99.90
2721;DHT22;1368;49.484;11.112;2023-04-10T02:08:42;5.00;99.90
2721;DHT22;1368;49.484;11.112;2023-04-10T02:11:46;4.80;99.90
2721;DHT22;1368;49.484;11.112;2023-04-10T02:14:15;4.70;99.90
2721;DHT22;1368;49.484;11.112;2023-04-10T02:16:42;4.50;99.90
2721;DHT22;1368;49.484;11.112;2023-04-10T02:19:10;4.40;99.90
2721;DHT22;1368;49.484;11.112;2023-04-10T02:21:36;4.30;99.90
2721;DHT22;1368;49.484;11.112;2023-04-10T02:24:05;4.30;99.90
2721;DHT22;1368;49.484;11.112;2023-04-10T02:26:43;4.30;99.90
2721;DHT22;1368;49.484;11.112;2023-04-10T02:29:09;4.20;99.90
2721;DHT22;1368;49.484;11.112;2023-04-10T02:31:34;4.20;99.90
2721;DHT22;1368;49.484;11.112;2023-04-10T02:34:00;4.40;99.90
2721;DHT22;1368;49.484;11.112;2023-04-10T02:36:25;4.40;99.90
2721;DHT22;1368;49.484;11.112;2023-04-10T02:38:51;4.30;99.90
2721;DHT22;1368;49.484;11.112;2023-04-10T02:41:16;4.50;99.90
2721;DHT22;1368;49.484;11.112;2023-04-10T02:43:42;4.60;99.90
2721;DHT22;1368;49.484;11.112;2023-04-10T02:46:07;4.60;99.90
2721;DHT22;1368;49.484;11.112;2023-04-10T02:48:33;4.60;99.90
2721;DHT22;1368;49.484;11.112;2023-04-10T02:50:58;4.70;99.90
2721;DHT22;1368;49.484;11.112;2023-04-10T02:53:24;4.60;99.90
2721;DHT22;1368;49.484;11.112;2023-04-10T02:55:51;4.60;99.90
2721;DHT22;1368;49.484;11.112;2023-04-10T02:58:18;4.50;99.90
2721;DHT22;1368;49.484;11.112;2023-04-10T03:00:50;4.50;99.90
2721;DHT22;1368;49.484;11.112;2023-04-10T03:03:19;4.50;99.90
2721;DHT22;1368;49.484;11.112;2023-04-10T03:05:45;4.40;99.90
2721;DHT22;1368;49.484;11.112;2023-04-10T03:08:13;4.00;99.90
2721;DHT22;1368;49.484;11.112;2023-04-10T03:10:38;3.80;99.90
2721;DHT22;1368;49.484;11.112;2023-04-10T03:13:04;3.60;99.90
2721;DHT22;1368;49.484;11.112;2023-04-10T03:15:29;3.60;99.90
2721;DHT22;1368;49.484;11.112;2023-04-10T03:17:55;3.50;99.90
2721;DHT22;1368;49.484;11.112;2023-04-10T03:20:21;3.40;99.90
2721;DHT22;1368;49.484;11.112;2023-04-10T03:22:46;3.40;99.90
2721;DHT22;1368;49.484;11.112;2023-04-10T03:25:12;3.50;99.90
2721;DHT22;1368;49.484;11.112;2023-04-10T03:27:38;3.50;99.90
2721;DHT22;1368;49.484;11.112;2023-04-10T03:30:04;3.40;99.90
2721;DHT22;1368;49.484;11.112;2023-04-10T03:32:30;3.50;99.90
2721;DHT22;1368;49.484;11.112;2023-04-10T03:34:56;3.50;99.90
2721;DHT22;1368;49.484;11.112;2023-04-10T03:37:23;3.50;99.90
2721;DHT22;1368;49.484;11.112;2023-04-10T03:39:48;3.60;99.90
2721;DHT22;1368;49.484;11.112;2023-04-10T03:42:14;3.50;99.90
2721;DHT22;1368;49.484;11.112;2023-04-10T03:44:39;3.40;99.90
2721;DHT22;1368;49.484;11.112;2023-04-10T03:47:05;3.50;99.90
2721;DHT22;1368;49.484;11.112;2023-04-10T03:49:30;3.40;99.90
2721;DHT22;1368;49.484;11.112;2023-04-10T03:51:56;3.30;99.90
2721;DHT22;1368;49.484;11.112;2023-04-10T03:54:21;3.30;99.90
2721;DHT22;1368;49.484;11.112;2023-04-10T03:56:47;3.40;99.90
2721;DHT22;1368;49.484;11.112;2023-04-10T03:59:12;3.30;99.90
2721;DHT22;1368;49.484;11.112;2023-04-10T04:01:38;3.50;99.90
2721;DHT22;1368;49.484;11.112;2023-04-10T04:04:04;3.50;99.90
2721;DHT22;1368;49.484;11.112;2023-04-10T04:06:30;3.50;99.90
2721;DHT22;1368;49.484;11.112;2023-04-10T04:08:56;3.40;99.90
2721;DHT22;1368;49.484;11.112;2023-04-10T04:11:22;3.50;99.90
2721;DHT22;1368;49.484;11.112;2023-04-10T04:13:47;3.60;99.90
2721;DHT22;1368;49.484;11.112;2023-04-10T04:16:13;3.50;99.90
2721;DHT22;1368;49.484;11.112;2023-04-10T04:18:38;3.50;99.90
2721;DHT22;1368;49.484;11.112;2023-04-10T04:21:04;3.40;99.90
2721;DHT22;1368;49.484;11.112;2023-04-10T04:23:30;3.60;99.90
2721;DHT22;1368;49.484;11.112;2023-04-10T04:25:56;3.00;99.90
2721;DHT22;1368;49.484;11.112;2023-04-10T04:28:22;3.00;99.90
2721;DHT22;1368;49.484;11.112;2023-04-10T04:30:47;2.90;99.90
2721;DHT22;1368;49.484;11.112;2023-04-10T04:33:13;3.00;99.90
2721;DHT22;1368;49.484;11.112;2023-04-10T04:35:38;3.20;99.90
2721;DHT22;1368;49.484;11.112;2023-04-10T04:38:04;3.30;99.90
2721;DHT22;1368;49.484;11.112;2023-04-10T04:40:30;3.40;99.90
2721;DHT22;1368;49.484;11.112;2023-04-10T04:42:55;3.40;99.90
2721;DHT22;1368;49.484;11.112;2023-04-10T04:45:21;3.80;99.90
2721;DHT22;1368;49.484;11.112;2023-04-10T04:47:47;3.90;99.90
2721;DHT22;1368;49.484;11.112;2023-04-10T04:50:12;3.90;99.90
2721;DHT22;1368;49.484;11.112;2023-04-10T04:52:38;4.10;99.90
2721;DHT22;1368;49.484;11.112;2023-04-10T04:55:03;4.10;99.90
2721;DHT22;1368;49.484;11.112;2023-04-10T04:57:30;4.10;99.90
2721;DHT22;1368;49.484;11.112;2023-04-10T04:59:55;4.10;99.90
2721;DHT22;1368;49.484;11.112;2023-04-10T05:02:21;4.20;99.90
2721;DHT22;1368;49.484;11.112;2023-04-10T05:04:47;4.00;99.90
2721;DHT22;1368;49.484;11.112;2023-04-10T05:07:13;3.80;99.90
2721;DHT22;1368;49.484;11.112;2023-04-10T05:09:38;3.90;99.90
2721;DHT22;1368;49.484;11.112;2023-04-10T05:12:04;3.90;99.90
2721;DHT22;1368;49.484;11.112;2023-04-10T05:14:30;4.20;99.90
2721;DHT22;1368;49.484;11.112;2023-04-10T05:16:56;4.40;99.90
2721;DHT22;1368;49.484;11.112;2023-04-10T05:19:21;4.80;99.90
2721;DHT22;1368;49.484;11.112;2023-04-10T05:21:47;5.10;99.90
2721;DHT22;1368;49.484;11.112;2023-04-10T05:24:12;5.50;99.90
2721;DHT22;1368;49.484;11.112;2023-04-10T05:26:38;5.80;99.90
2721;DHT22;1368;49.484;11.112;2023-04-10T05:29:05;6.20;99.90
2721;DHT22;1368;49.484;11.112;2023-04-10T05:31:30;6.80;99.90
2721;DHT22;1368;49.484;11.112;2023-04-10T05:33:56;7.00;99.90
2721;DHT22;1368;49.484;11.112;2023-04-10T05:36:21;7.50;99.90
2721;DHT22;1368;49.484;11.112;2023-04-10T05:38:47;7.90;99.90
2721;DHT22;1368;49.484;11.112;2023-04-10T05:41:12;8.40;99.90
2721;DHT22;1368;49.484;11.112;2023-04-10T05:43:38;8.70;99.90
2721;DHT22;1368;49.484;11.112;2023-04-10T05:46:04;9.10;99.90
2721;DHT22;1368;49.484;11.112;2023-04-10T05:48:29;9.10;99.90
2721;DHT22;1368;49.484;11.112;2023-04-10T05:50:55;9.10;99.90
2721;DHT22;1368;49.484;11.112;2023-04-10T05:53:20;9.40;99.90
2721;DHT22;1368;49.484;11.112;2023-04-10T05:55:49;9.60;99.90
2721;DHT22;1368;49.484;11.112;2023-04-10T05:58:20;10.00;99.90
2721;DHT22;1368;49.484;11.112;2023-04-10T06:00:46;10.60;99.90
2721;DHT22;1368;49.484;11.112;2023-04-10T06:03:11;10.70;99.90
2721;DHT22;1368;49.484;11.112;2023-04-10T06:05:37;11.30;99.90
2721;DHT22;1368;49.484;11.112;2023-04-10T06:08:02;11.90;99.90
2721;DHT22;1368;49.484;11.112;2023-04-10T06:10:29;11.90;99.90
2721;DHT22;1368;49.484;11.112;2023-04-10T06:12:55;12.20;99.90
2721;DHT22;1368;49.484;11.112;2023-04-10T06:15:20;12.10;99.90
2721;DHT22;1368;49.484;11.112;2023-04-10T06:17:46;12.50;99.90
2721;DHT22;1368;49.484;11.112;2023-04-10T06:20:12;12.90;99.90
2721;DHT22;1368;49.484;11.112;2023-04-10T06:22:37;12.90;99.90
2721;DHT22;1368;49.484;11.112;2023-04-10T06:25:03;13.00;99.90
2721;DHT22;1368;49.484;11.112;2023-04-10T06:27:29;12.90;99.90
2721;DHT22;1368;49.484;11.112;2023-04-10T06:29:55;13.00;99.90
2721;DHT22;1368;49.484;11.112;2023-04-10T06:32:21;13.20;99.90
2721;DHT22;1368;49.484;11.112;2023-04-10T06:34:46;13.70;99.90
2721;DHT22;1368;49.484;11.112;2023-04-10T06:37:12;13.70;99.90
2721;DHT22;1368;49.484;11.112;2023-04-10T06:39:37;13.20;99.90
2721;DHT22;1368;49.484;11.112;2023-04-10T06:42:03;12.90;99.90
2721;DHT22;1368;49.484;11.112;2023-04-10T06:44:29;13.10;99.90
2721;DHT22;1368;49.484;11.112;2023-04-10T06:46:55;13.40;99.90
2721;DHT22;1368;49.484;11.112;2023-04-10T06:49:20;13.40;99.90
2721;DHT22;1368;49.484;11.112;2023-04-10T06:51:46;13.90;99.90
2721;DHT22;1368;49.484;11.112;2023-04-10T06:54:13;15.10;99.90
2721;DHT22;1368;49.484;11.112;2023-04-10T06:56:38;15.20;99.30
2721;DHT22;1368;49.484;11.112;2023-04-10T06:59:04;15.60;99.70
2721;DHT22;1368;49.484;11.112;2023-04-10T07:01:29;16.30;99.20
2721;DHT22;1368;49.484;11.112;2023-04-10T07:03:55;17.60;96.70
2721;DHT22;1368;49.484;11.112;2023-04-10T07:06:21;18.30;95.40
2721;DHT22;1368;49.484;11.112;2023-04-10T07:08:48;18.70;93.90
2721;DHT22;1368;49.484;11.112;2023-04-10T07:11:14;18.80;93.00
2721;DHT22;1368;49.484;11.112;2023-04-10T07:13:39;19.00;91.80
2721;DHT22;1368;49.484;11.112;2023-04-10T07:16:06;19.40;92.20
2721;DHT22;1368;49.484;11.112;2023-04-10T07:18:33;19.40;91.20
2721;DHT22;1368;49.484;11.112;2023-04-10T07:20:59;19.60;90.80
2721;DHT22;1368;49.484;11.112;2023-04-10T07:23:25;19.70;90.40
2721;DHT22;1368;49.484;11.112;2023-04-10T07:25:51;19.80;88.70
2721;DHT22;1368;49.484;11.112;2023-04-10T07:28:17;18.80;90.00
2721;DHT22;1368;49.484;11.112;2023-04-10T07:30:43;19.00;89.80
2721;DHT22;1368;49.484;11.112;2023-04-10T07:33:08;18.90;90.20
2721;DHT22;1368;49.484;11.112;2023-04-10T07:35:34;19.40;89.60
2721;DHT22;1368;49.484;11.112;2023-04-10T07:38:01;19.70;87.50
2721;DHT22;1368;49.484;11.112;2023-04-10T07:40:26;19.80;88.20
2721;DHT22;1368;49.484;11.112;2023-04-10T07:42:52;20.40;86.70
2721;DHT22;1368;49.484;11.112;2023-04-10T07:45:17;20.30;83.70
2721;DHT22;1368;49.484;11.112;2023-04-10T07:47:43;19.70;84.60
2721;DHT22;1368;49.484;11.112;2023-04-10T07:50:08;19.20;84.40
2721;DHT22;1368;49.484;11.112;2023-04-10T07:52:34;18.70;85.90
2721;DHT22;1368;49.484;11.112;2023-04-10T07:55:01;18.20;86.80
2721;DHT22;1368;49.484;11.112;2023-04-10T07:57:27;17.80;88.70
2721;DHT22;1368;49.484;11.112;2023-04-10T07:59:52;17.90;89.70
2721;DHT22;1368;49.484;11.112;2023-04-10T08:02:18;18.50;88.30
2721;DHT22;1368;49.484;11.112;2023-04-10T08:04:43;19.00;87.20
2721;DHT22;1368;49.484;11.112;2023-04-10T08:07:09;19.90;86.70
2721;DHT22;1368;49.484;11.112;2023-04-10T08:09:35;20.30;83.80
2721;DHT22;1368;49.484;11.112;2023-04-10T08:12:01;19.60;83.80
2721;DHT22;1368;49.484;11.112;2023-04-10T08:14:27;20.00;83.40
2721;DHT22;1368;49.484;11.112;2023-04-10T08:16:53;19.60;83.70
2721;DHT22;1368;49.484;11.112;2023-04-10T08:19:18;19.10;83.60
2721;DHT22;1368;49.484;11.112;2023-04-10T08:21:44;18.80;83.10
2721;DHT22;1368;49.484;11.112;2023-04-10T08:24:09;18.70;86.40
2721;DHT22;1368;49.484;11.112;2023-04-10T08:26:35;18.80;82.70
2721;DHT22;1368;49.484;11.112;2023-04-10T08:29:00;18.60;83.70
2721;DHT22;1368;49.484;11.112;2023-04-10T08:31:27;18.20;86.90
2721;DHT22;1368;49.484;11.112;2023-04-10T08:33:53;18.40;84.90
2721;DHT22;1368;49.484;11.112;2023-04-10T08:36:18;18.80;84.60
2721;DHT22;1368;49.484;11.112;2023-04-10T08:38:45;18.50;83.70
2721;DHT22;1368;49.484;11.112;2023-04-10T08:41:15;18.30;83.40
2721;DHT22;1368;49.484;11.112;2023-04-10T08:43:41;19.10;85.70
2721;DHT22;1368;49.484;11.112;2023-04-10T08:46:07;18.90;82.00
2721;DHT22;1368;49.484;11.112;2023-04-10T08:48:51;18.60;83.90
2721;DHT22;1368;49.484;11.112;2023-04-10T08:51:19;18.70;83.50
2721;DHT22;1368;49.484;11.112;2023-04-10T08:53:49;18.90;82.20
2721;DHT22;1368;49.484;11.112;2023-04-10T08:56:16;18.90;81.80
2721;DHT22;1368;49.484;11.112;2023-04-10T08:58:42;18.70;83.00
2721;DHT22;1368;49.484;11.112;2023-04-10T09:01:09;19.20;83.00
2721;DHT22;1368;49.484;11.112;2023-04-10T09:03:37;19.70;80.30
2721;DHT22;1368;49.484;11.112;2023-04-10T09:06:04;19.70;79.30
2721;DHT22;1368;49.484;11.112;2023-04-10T09:08:30;19.80;80.80
2721;DHT22;1368;49.484;11.112;2023-04-10T09:10:56;20.40;80.50
2721;DHT22;1368;49.484;11.112;2023-04-10T09:13:36;20.30;77.80
2721;DHT22;1368;49.484;11.112;2023-04-10T09:16:02;21.30;77.80
2721;DHT22;1368;49.484;11.112;2023-04-10T09:18:48;21.60;75.10
2721;DHT22;1368;49.484;11.112;2023-04-10T09:21:19;20.60;73.80
2721;DHT22;1368;49.484;11.112;2023-04-10T09:23:46;20.10;77.30
2721;DHT22;1368;49.484;11.112;2023-04-10T09:29:05;20.10;75.70
2721;DHT22;1368;49.484;11.112;2023-04-10T09:31:37;19.80;75.30
2721;DHT22;1368;49.484;11.112;2023-04-10T09:34:14;20.10;76.00
2721;DHT22;1368;49.484;11.112;2023-04-10T09:36:42;20.50;76.90
2721;DHT22;1368;49.484;11.112;2023-04-10T09:39:09;20.10;79.10
2721;DHT22;1368;49.484;11.112;2023-04-10T09:41:56;20.30;75.40
2721;DHT22;1368;49.484;11.112;2023-04-10T09:44:30;20.00;75.20
2721;DHT22;1368;49.484;11.112;2023-04-10T09:46:56;20.10;75.60
2721;DHT22;1368;49.484;11.112;2023-04-10T09:49:22;19.90;75.40
2721;DHT22;1368;49.484;11.112;2023-04-10T09:51:48;19.10;75.50
2721;DHT22;1368;49.484;11.112;2023-04-10T09:54:14;19.00;77.50
2721;DHT22;1368;49.484;11.112;2023-04-10T09:56:40;18.50;76.20
2721;DHT22;1368;49.484;11.112;2023-04-10T09:59:07;18.80;79.10
2721;DHT22;1368;49.484;11.112;2023-04-10T10:01:33;19.60;77.20
2721;DHT22;1368;49.484;11.112;2023-04-10T10:04:03;20.00;76.50
2721;DHT22;1368;49.484;11.112;2023-04-10T10:06:32;19.40;74.90
2721;DHT22;1368;49.484;11.112;2023-04-10T10:09:02;18.90;75.60
2721;DHT22;1368;49.484;11.112;2023-04-10T10:11:33;19.00;74.30
2721;DHT22;1368;49.484;11.112;2023-04-10T10:14:06;19.00;75.50
2721;DHT22;1368;49.484;11.112;2023-04-10T10:16:36;19.20;77.20
2721;DHT22;1368;49.484;11.112;2023-04-10T10:21:54;19.30;76.40
2721;DHT22;1368;49.484;11.112;2023-04-10T10:24:22;19.70;74.60
2721;DHT22;1368;49.484;11.112;2023-04-10T10:26:49;20.50;72.80
2721;DHT22;1368;49.484;11.112;2023-04-10T10:29:15;21.20;72.30
2721;DHT22;1368;49.484;11.112;2023-04-10T10:31:43;20.80;71.90
2721;DHT22;1368;49.484;11.112;2023-04-10T10:34:10;20.30;71.70
2721;DHT22;1368;49.484;11.112;2023-04-10T10:36:36;20.20;71.20
2721;DHT22;1368;49.484;11.112;2023-04-10T10:39:22;20.40;70.50
2721;DHT22;1368;49.484;11.112;2023-04-10T10:47:21;18.90;72.00
2721;DHT22;1368;49.484;11.112;2023-04-10T10:58:02;19.20;71.20
2721;DHT22;1368;49.484;11.112;2023-04-10T11:13:31;18.50;75.10
2721;DHT22;1368;49.484;11.112;2023-04-10T11:15:57;18.70;74.30
2721;DHT22;1368;49.484;11.112;2023-04-10T11:21:21;18.30;74.40
2721;DHT22;1368;49.484;11.112;2023-04-10T11:28:58;17.20;75.30
2721;DHT22;1368;49.484;11.112;2023-04-10T11:31:25;16.90;77.50
2721;DHT22;1368;49.484;11.112;2023-04-10T11:34:01;16.20;77.30
2721;DHT22;1368;49.484;11.112;2023-04-10T11:36:27;16.50;78.50
2721;DHT22;1368;49.484;11.112;2023-04-10T11:41:36;16.90;76.50
2721;DHT22;1368;49.484;11.112;2023-04-10T11:44:10;17.50;77.40
2721;DHT22;1368;49.484;11.112;2023-04-10T11:46:37;17.00;73.60
2721;DHT22;1368;49.484;11.112;2023-04-10T11:49:05;17.80;73.50
2721;DHT22;1368;49.484;11.112;2023-04-10T11:51:31;17.80;73.50
2721;DHT22;1368;49.484;11.112;2023-04-10T11:54:11;18.10;74.30
2721;DHT22;1368;49.484;11.112;2023-04-10T11:56:39;18.10;72.40
2721;DHT22;1368;49.484;11.112;2023-04-10T11:59:05;18.40;71.30
2721;DHT22;1368;49.484;11.112;2023-04-10T12:01:43;18.90;73.40
2721;DHT22;1368;49.484;11.112;2023-04-10T12:04:20;18.70;67.00
2721;DHT22;1368;49.484;11.112;2023-04-10T12:06:52;18.20;69.10
2721;DHT22;1368;49.484;11.112;2023-04-10T12:09:21;17.40;70.60
2721;DHT22;1368;49.484;11.112;2023-04-10T12:11:57;17.20;72.50
2721;DHT22;1368;49.484;11.112;2023-04-10T12:14:35;17.50;72.30
2721;DHT22;1368;49.484;11.112;2023-04-10T12:17:03;17.10;72.40
2721;DHT22;1368;49.484;11.112;2023-04-10T12:19:30;17.30;71.50
2721;DHT22;1368;49.484;11.112;2023-04-10T12:21:57;17.30;70.80
2721;DHT22;1368;49.484;11.112;2023-04-10T12:24:46;16.50;71.90
2721;DHT22;1368;49.484;11.112;2023-04-10T12:27:26;16.80;72.20
2721;DHT22;1368;49.484;11.112;2023-04-10T12:29:53;17.30;70.80
2721;DHT22;1368;49.484;11.112;2023-04-10T12:32:19;17.70;71.50
2721;DHT22;1368;49.484;11.112;2023-04-10T12:34:51;17.90;71.80
2721;DHT22;1368;49.484;11.112;2023-04-10T12:37:18;17.40;71.50
2721;DHT22;1368;49.484;11.112;2023-04-10T12:39:43;17.30;71.80
2721;DHT22;1368;49.484;11.112;2023-04-10T12:42:14;17.50;72.60
2721;DHT22;1368;49.484;11.112;2023-04-10T12:44:59;17.20;71.60
2721;DHT22;1368;49.484;11.112;2023-04-10T12:47:26;16.90;72.30
2721;DHT22;1368;49.484;11.112;2023-04-10T12:52:28;17.30;72.70
2721;DHT22;1368;49.484;11.112;2023-04-10T12:54:54;16.90;73.00
2721;DHT22;1368;49.484;11.112;2023-04-10T12:57:31;17.60;74.00
2721;DHT22;1368;49.484;11.112;2023-04-10T12:59:57;17.10;73.00
2721;DHT22;1368;49.484;11.112;2023-04-10T13:02:22;17.30;73.00
2721;DHT22;1368;49.484;11.112;2023-04-10T13:04:48;17.20;74.80
2721;DHT22;1368;49.484;11.112;2023-04-10T13:07:14;16.60;73.30
2721;DHT22;1368;49.484;11.112;2023-04-10T13:09:40;16.50;74.00
2721;DHT22;1368;49.484;11.112;2023-04-10T13:12:05;16.60;73.30
2721;DHT22;1368;49.484;11.112;2023-04-10T13:14:32;16.60;73.30
2721;DHT22;1368;49.484;11.112;2023-04-10T13:16:57;16.70;72.20
2721;DHT22;1368;49.484;11.112;2023-04-10T13:19:23;16.70;73.80
2721;DHT22;1368;49.484;11.112;2023-04-10T13:21:49;17.10;73.90
2721;DHT22;1368;49.484;11.112;2023-04-10T13:24:15;17.10;71.00
2721;DHT22;1368;49.484;11.112;2023-04-10T13:26:41;16.60;72.30
2721;DHT22;1368;49.484;11.112;2023-04-10T13:29:06;16.60;73.10
2721;DHT22;1368;49.484;11.112;2023-04-10T13:31:32;17.20;73.00
2721;DHT22;1368;49.484;11.112;2023-04-10T13:33:57;16.60;73.30
2721;DHT22;1368;49.484;11.112;2023-04-10T13:36:23;16.80;71.40
2721;DHT22;1368;49.484;11.112;2023-04-10T13:38:49;16.70;72.50
2721;DHT22;1368;49.484;11.112;2023-04-10T13:41:15;16.70;71.10
2721;DHT22;1368;49.484;11.112;2023-04-10T13:43:40;17.20;72.80
2721;DHT22;1368;49.484;11.112;2023-04-10T13:46:06;17.20;69.90
2721;DHT22;1368;49.484;11.112;2023-04-10T13:48:31;17.50;69.80
2721;DHT22;1368;49.484;11.112;2023-04-10T13:50:57;17.40;69.70
2721;DHT22;1368;49.484;11.112;2023-04-10T13:53:23;16.90;70.00
2721;DHT22;1368;49.484;11.112;2023-04-10T13:55:48;17.00;69.40
2721;DHT22;1368;49.484;11.112;2023-04-10T13:58:14;17.20;70.10
2721;DHT22;1368;49.484;11.112;2023-04-10T14:00:43;17.20;70.50
2721;DHT22;1368;49.484;11.112;2023-04-10T14:03:09;16.90;70.00
2721;DHT22;1368;49.484;11.112;2023-04-10T14:05:39;16.90;69.60
2721;DHT22;1368;49.484;11.112;2023-04-10T14:08:05;16.90;71.00
2721;DHT22;1368;49.484;11.112;2023-04-10T14:10:30;17.10;70.50
2721;DHT22;1368;49.484;11.112;2023-04-10T14:12:56;17.10;71.00
2721;DHT22;1368;49.484;11.112;2023-04-10T14:15:21;17.00;70.20
2721;DHT22;1368;49.484;11.112;2023-04-10T14:17:47;16.80;70.00
2721;DHT22;1368;49.484;11.112;2023-04-10T14:20:13;16.60;68.80
2721;DHT22;1368;49.484;11.112;2023-04-10T14:22:38;16.60;71.30
2721;DHT22;1368;49.484;11.112;2023-04-10T14:25:04;16.50;70.80
2721;DHT22;1368;49.484;11.112;2023-04-10T14:27:31;16.50;71.30
2721;DHT22;1368;49.484;11.112;2023-04-10T14:29:56;16.80;70.80
2721;DHT22;1368;49.484;11.112;2023-04-10T14:32:22;16.40;70.00
2721;DHT22;1368;49.484;11.112;2023-04-10T14:34:47;16.50;69.40
2721;DHT22;1368;49.484;11.112;2023-04-10T14:37:13;16.30;69.30
2721;DHT22;1368;49.484;11.112;2023-04-10T14:39:38;16.40;70.00
2721;DHT22;1368;49.484;11.112;2023-04-10T14:42:04;16.30;69.50
2721;DHT22;1368;49.484;11.112;2023-04-10T14:44:30;16.20;69.40
2721;DHT22;1368;49.484;11.112;2023-04-10T14:46:56;16.20;70.30
2721;DHT22;1368;49.484;11.112;2023-04-10T14:49:21;16.30;70.80
2721;DHT22;1368;49.484;11.112;2023-04-10T14:51:47;16.20;70.10
2721;DHT22;1368;49.484;11.112;2023-04-10T14:54:14;16.50;70.70
2721;DHT22;1368;49.484;11.112;2023-04-10T14:56:41;16.50;69.40
2721;DHT22;1368;49.484;11.112;2023-04-10T14:59:07;16.30;69.20
2721;DHT22;1368;49.484;11.112;2023-04-10T15:01:33;16.40;69.30
2721;DHT22;1368;49.484;11.112;2023-04-10T15:04:00;16.30;67.10
2721;DHT22;1368;49.484;11.112;2023-04-10T15:06:25;16.60;68.00
2721;DHT22;1368;49.484;11.112;2023-04-10T15:08:53;16.70;66.80
2721;DHT22;1368;49.484;11.112;2023-04-10T15:11:18;16.50;66.40
2721;DHT22;1368;49.484;11.112;2023-04-10T15:13:46;16.10;67.60
2721;DHT22;1368;49.484;11.112;2023-04-10T15:16:11;16.10;67.20
2721;DHT22;1368;49.484;11.112;2023-04-10T15:18:37;16.20;67.40
2721;DHT22;1368;49.484;11.112;2023-04-10T15:21:03;16.50;68.00
2721;DHT22;1368;49.484;11.112;2023-04-10T15:23:28;16.50;67.30
2721;DHT22;1368;49.484;11.112;2023-04-10T15:25:54;16.50;66.90
2721;DHT22;1368;49.484;11.112;2023-04-10T15:28:19;16.50;67.30
2721;DHT22;1368;49.484;11.112;2023-04-10T15:30:45;16.40;66.90
2721;DHT22;1368;49.484;11.112;2023-04-10T15:33:12;16.80;67.40
2721;DHT22;1368;49.484;11.112;2023-04-10T15:35:38;16.50;68.60
2721;DHT22;1368;49.484;11.112;2023-04-10T15:38:04;16.60;67.50
2721;DHT22;1368;49.484;11.112;2023-04-10T15:40:30;16.60;68.20
2721;DHT22;1368;49.484;11.112;2023-04-10T15:42:56;16.50;68.00
2721;DHT22;1368;49.484;11.112;2023-04-10T15:45:22;16.20;67.30
2721;DHT22;1368;49.484;11.112;2023-04-10T15:47:48;16.20;68.40
2721;DHT22;1368;49.484;11.112;2023-04-10T15:50:13;16.10;67.90
2721;DHT22;1368;49.484;11.112;2023-04-10T15:52:39;15.90;68.10
2721;DHT22;1368;49.484;11.112;2023-04-10T15:55:05;15.90;69.10
2721;DHT22;1368;49.484;11.112;2023-04-10T15:57:30;15.80;69.00
2721;DHT22;1368;49.484;11.112;2023-04-10T15:59:56;15.80;69.20
2721;DHT22;1368;49.484;11.112;2023-04-10T16:02:23;15.80;68.90
2721;DHT22;1368;49.484;11.112;2023-04-10T16:04:48;15.80;68.60
2721;DHT22;1368;49.484;11.112;2023-04-10T16:07:14;15.90;69.00
2721;DHT22;1368;49.484;11.112;2023-04-10T16:09:40;16.50;70.10
2721;DHT22;1368;49.484;11.112;2023-04-10T16:12:05;16.50;70.40
2721;DHT22;1368;49.484;11.112;2023-04-10T16:14:31;16.10;70.00
2721;DHT22;1368;49.484;11.112;2023-04-10T16:16:56;16.20;70.00
2721;DHT22;1368;49.484;11.112;2023-04-10T16:19:22;16.00;70.70
2721;DHT22;1368;49.484;11.112;2023-04-10T16:21:47;16.10;70.40
2721;DHT22;1368;49.484;11.112;2023-04-10T16:24:14;16.10;70.60
2721;DHT22;1368;49.484;11.112;2023-04-10T16:26:40;16.00;70.50
2721;DHT22;1368;49.484;11.112;2023-04-10T16:29:05;15.60;71.20
2721;DHT22;1368;49.484;11.112;2023-04-10T16:31:31;15.40;72.40
2721;DHT22;1368;49.484;11.112;2023-04-10T16:33:56;15.40;72.60
2721;DHT22;1368;49.484;11.112;2023-04-10T16:36:22;15.70;72.40
2721;DHT22;1368;49.484;11.112;2023-04-10T16:38:47;15.70;72.10
2721;DHT22;1368;49.484;11.112;2023-04-10T16:41:14;15.30;72.50
2721;DHT22;1368;49.484;11.112;2023-04-10T16:43:42;15.30;72.40
2721;DHT22;1368;49.484;11.112;2023-04-10T16:46:08;15.10;73.10